Chicago, IL

4:09 AM CDT on August 29, 2016 (GMT -0500)
West Loop | | Change Station

Elev 571 ft 41.88 °N, 87.64 °W | Updated 22 seconds ago

Scattered Clouds
Scattered Clouds
75.4 °F
Feels Like 77 °F
N
1.1
Wind Variable Wind from ENE

Today
High -- | Low -- °F
--% Chance of Precip.
Yesterday
High -- | Low -- °F
Precip. -- in
Pressure 30.17 in
Visibility 10.0 miles
Clouds Few 4500 ft
Scattered Clouds 23000 ft
Heat Index 77 °F
Dew Point 64 °F
Humidity 68%
Rainfall 0.00 in
Snow Depth Not available.
6:13 AM 7:28 PM
Waning Crescent, 10% visible
METAR KMDW 290853Z 06005KT 10SM FEW045 SCT230 23/20 A3020 RMK AO2 SLP217 T02280200 55006
Pressure 30.17 in
Visibility 10.0 miles
Clouds Few 4500 ft
Scattered Clouds 23000 ft
Heat Index 77 °F
Dew Point 64 °F
Humidity 68%
Rainfall 0.00 in
Snow Depth Not available.
6:13 AM 7:28 PM
Waning Crescent, 10% visible
METAR KMDW 290853Z 06005KT 10SM FEW045 SCT230 23/20 A3020 RMK AO2 SLP217 T02280200 55006

10-Day Weather Forecast

Almanac

Astronomy

Aug. 29, 2016 Rise Set
Actual Time
Civil Twilight
Nautical Twilight
Astronomical Twilight
Moon
Length of Visible Light
Length of Day
Tomorrow will be .
, % of the Moon is Illuminated

Today's Extremes

State Highs State Lows

Community

WunderPhotos

Upload Photos

1,935,798 photos uploaded!

WunderBlog® & News

Nearby

Air Quality

  Air Quality AQ Index Pollutant
Not available.

Snow Depth

Station Depth Elevation

Earthquake Activity

City Distance Mag. Time & Date
Minimum magnitude displayed is 2.5.

Coastal Water Temperatures

Place Temperature

Stations

Nearby Weather Stations

Station Location Temp. Windchill Dew Point Humidity Wind Precip. Elev Updated Type
                   

Watches & Warnings

There are currently no watches in effect.